createdAt,value
2019-06-27T00:01:57.031Z,4.72
2019-06-27T00:04:25.499Z,4.50
2019-06-27T00:06:53.987Z,4.33
2019-06-27T00:09:23.158Z,4.28
2019-06-27T00:11:51.624Z,4.60
2019-06-27T00:14:20.336Z,4.70
2019-06-27T00:16:49.020Z,5.00
2019-06-27T00:19:17.719Z,5.00
2019-06-27T00:21:46.163Z,4.33
2019-06-27T00:24:14.859Z,4.60
2019-06-27T00:26:56.133Z,4.83
2019-06-27T00:29:13.467Z,4.47
2019-06-27T00:31:41.894Z,5.60
2019-06-27T00:34:10.342Z,4.30
2019-06-27T00:36:38.782Z,4.97
2019-06-27T00:39:07.270Z,4.80
2019-06-27T00:41:35.698Z,4.90
2019-06-27T00:44:04.142Z,5.08
2019-06-27T00:46:32.584Z,4.72
2019-06-27T00:49:01.017Z,4.92
2019-06-27T00:51:29.470Z,5.37
2019-06-27T00:53:57.894Z,4.42
2019-06-27T00:56:26.338Z,4.95
2019-06-27T00:58:54.771Z,4.65
2019-06-27T01:01:23.220Z,4.47
2019-06-27T01:03:51.647Z,4.80
2019-06-27T01:06:20.087Z,4.53
2019-06-27T01:08:48.527Z,4.70
2019-06-27T01:11:16.975Z,4.67
2019-06-27T01:13:45.422Z,4.75
2019-06-27T01:16:13.982Z,4.50
2019-06-27T01:18:42.460Z,4.50
2019-06-27T01:21:10.907Z,4.60
2019-06-27T01:23:39.347Z,4.40
2019-06-27T01:26:07.807Z,4.70
2019-06-27T01:28:36.319Z,4.58
2019-06-27T01:31:04.767Z,4.40
2019-06-27T01:33:34.102Z,4.85
2019-06-27T01:36:02.578Z,5.10
2019-06-27T01:38:31.064Z,4.60
2019-06-27T01:40:59.780Z,4.60
2019-06-27T01:43:28.203Z,4.10
2019-06-27T01:45:58.515Z,4.72
2019-06-27T01:48:26.951Z,4.47
2019-06-27T01:50:55.387Z,4.37
2019-06-27T01:53:23.863Z,4.33
2019-06-27T01:55:52.306Z,4.40
2019-06-27T01:58:20.740Z,4.30
2019-06-27T02:00:49.191Z,4.17
2019-06-27T02:03:17.691Z,4.90
2019-06-27T02:05:46.380Z,5.28
2019-06-27T02:08:14.827Z,4.60
2019-06-27T02:10:43.334Z,4.20
2019-06-27T02:13:11.779Z,3.98
2019-06-27T02:15:44.866Z,4.42
2019-06-27T02:18:27.129Z,4.45
2019-06-27T02:20:55.670Z,4.30
2019-06-27T02:23:24.112Z,4.25
2019-06-27T02:25:52.552Z,4.80
2019-06-27T02:28:21.062Z,4.67
2019-06-27T02:30:49.509Z,4.10
2019-06-27T02:33:18.014Z,4.40
2019-06-27T02:35:46.712Z,5.35
2019-06-27T02:38:15.162Z,4.20
2019-06-27T02:40:43.858Z,4.00
2019-06-27T02:43:12.631Z,4.90
2019-06-27T02:45:41.060Z,4.65
2019-06-27T02:48:09.512Z,4.67
2019-06-27T02:50:38.223Z,4.40
2019-06-27T02:53:06.673Z,4.47
2019-06-27T02:55:35.111Z,4.40
2019-06-27T02:58:26.876Z,4.25
2019-06-27T03:00:33.771Z,4.60
2019-06-27T03:03:02.216Z,4.15
2019-06-27T03:05:30.667Z,3.95
2019-06-27T03:07:59.110Z,4.28
2019-06-27T03:10:27.541Z,4.40
2019-06-27T03:12:55.980Z,4.45
2019-06-27T03:15:24.424Z,4.22
2019-06-27T03:17:52.853Z,4.28
2019-06-27T03:20:21.305Z,4.40
2019-06-27T03:22:49.813Z,3.70
2019-06-27T03:25:18.264Z,3.90
2019-06-27T03:27:46.696Z,3.70
2019-06-27T03:30:15.738Z,4.25
2019-06-27T03:32:44.262Z,4.58
2019-06-27T03:35:12.784Z,4.20
2019-06-27T03:37:41.280Z,5.20
2019-06-27T03:40:10.268Z,4.90
2019-06-27T03:42:38.692Z,3.90
2019-06-27T03:45:07.379Z,4.30
2019-06-27T03:47:35.819Z,4.53
2019-06-27T03:50:05.319Z,4.33
2019-06-27T03:52:33.824Z,4.25
2019-06-27T03:55:02.271Z,4.80
2019-06-27T03:57:30.710Z,4.30
2019-06-27T03:59:59.147Z,3.50
2019-06-27T04:02:27.587Z,4.20
2019-06-27T04:04:56.668Z,4.00
2019-06-27T04:07:25.104Z,4.13
2019-06-27T04:09:53.548Z,3.87
2019-06-27T04:12:21.999Z,3.92
2019-06-27T04:14:50.444Z,4.00
2019-06-27T04:17:18.951Z,4.40
2019-06-27T04:19:47.412Z,4.17
2019-06-27T04:22:17.519Z,4.37
2019-06-27T04:24:46.077Z,4.10
2019-06-27T04:27:14.539Z,3.90
2019-06-27T04:29:43.042Z,3.85
2019-06-27T04:32:11.557Z,4.12
2019-06-27T04:34:40.086Z,4.08
2019-06-27T04:37:08.566Z,3.70
2019-06-27T04:39:37.048Z,3.90
2019-06-27T04:42:05.503Z,4.55
2019-06-27T04:44:34.012Z,3.50
2019-06-27T04:47:02.457Z,4.00
2019-06-27T04:49:30.900Z,5.10
2019-06-27T04:51:59.424Z,4.12
2019-06-27T04:54:27.943Z,4.47
2019-06-27T04:56:56.468Z,4.40
2019-06-27T04:59:24.966Z,4.57
2019-06-27T05:01:53.493Z,5.30
2019-06-27T05:04:21.995Z,5.10
2019-06-27T05:06:50.460Z,5.10
2019-06-27T05:09:18.899Z,4.90
2019-06-27T05:11:47.352Z,5.00
2019-06-27T05:14:15.809Z,5.45
2019-06-27T05:16:44.275Z,5.20
2019-06-27T05:19:12.707Z,5.70
2019-06-27T05:21:41.163Z,5.72
2019-06-27T05:24:09.684Z,6.20
2019-06-27T05:26:38.401Z,6.25
2019-06-27T05:29:06.895Z,6.70
2019-06-27T05:31:35.489Z,5.97
2019-06-27T05:34:04.179Z,5.87
2019-06-27T05:36:32.888Z,5.75
2019-06-27T05:39:01.343Z,6.42
2019-06-27T05:41:30.103Z,5.93
2019-06-27T05:43:58.806Z,5.73
2019-06-27T05:46:27.239Z,5.72
2019-06-27T05:48:55.699Z,5.70
2019-06-27T05:51:24.135Z,5.45
2019-06-27T05:53:52.581Z,5.70
2019-06-27T05:56:21.012Z,5.28
2019-06-27T05:58:51.958Z,4.40
2019-06-27T06:01:19.907Z,5.40
2019-06-27T06:03:48.395Z,5.30
2019-06-27T06:06:16.843Z,5.47
2019-06-27T06:08:45.552Z,5.33
2019-06-27T06:11:14.049Z,5.03
2019-06-27T06:13:42.753Z,5.33
2019-06-27T06:16:11.196Z,5.00
2019-06-27T06:18:39.635Z,5.30
2019-06-27T06:21:08.312Z,5.00
2019-06-27T06:23:36.848Z,5.15
2019-06-27T06:26:05.364Z,4.58
2019-06-27T06:28:33.869Z,4.95
2019-06-27T06:31:02.415Z,4.00
2019-06-27T06:33:31.137Z,4.60
2019-06-27T06:35:59.581Z,4.40
2019-06-27T06:38:28.036Z,4.80
2019-06-27T06:40:56.743Z,4.40
2019-06-27T06:43:25.186Z,4.47
2019-06-27T06:45:53.626Z,4.30
2019-06-27T06:48:22.409Z,4.00
2019-06-27T06:50:50.845Z,4.70
2019-06-27T06:53:19.547Z,4.30
2019-06-27T06:55:48.236Z,4.50
2019-06-27T06:58:16.685Z,4.10
2019-06-27T07:01:00.445Z,4.50
2019-06-27T07:03:15.475Z,4.50
2019-06-27T07:05:44.246Z,4.22
2019-06-27T07:08:12.687Z,4.20
2019-06-27T07:10:41.380Z,3.70
2019-06-27T07:13:09.811Z,3.95
2019-06-27T07:15:38.256Z,4.35
2019-06-27T07:18:06.691Z,4.40
2019-06-27T07:20:35.143Z,4.37
2019-06-27T07:23:03.571Z,4.00
2019-06-27T07:25:32.495Z,4.20
2019-06-27T07:28:01.295Z,4.35
2019-06-27T07:30:29.785Z,4.17
2019-06-27T07:32:58.478Z,4.60
2019-06-27T07:35:26.917Z,4.40
2019-06-27T07:37:55.593Z,4.30
2019-06-27T07:40:24.171Z,4.72
2019-06-27T07:42:52.605Z,4.70
2019-06-27T07:45:21.059Z,4.00
2019-06-27T07:47:49.498Z,5.30
2019-06-27T07:50:18.186Z,4.30
2019-06-27T07:52:46.640Z,4.53
2019-06-27T07:55:15.158Z,4.40
2019-06-27T07:57:43.588Z,4.15
2019-06-27T08:00:12.971Z,4.20
2019-06-27T08:02:41.415Z,4.58
2019-06-27T08:05:10.701Z,4.90
2019-06-27T08:07:39.144Z,4.10
2019-06-27T08:10:08.125Z,4.70
2019-06-27T08:12:36.555Z,4.70
2019-06-27T08:15:07.742Z,4.58
2019-06-27T08:17:36.173Z,4.05
2019-06-27T08:20:07.102Z,4.00
2019-06-27T08:22:35.542Z,4.33
2019-06-27T08:25:05.680Z,3.62
2019-06-27T08:27:34.113Z,3.67
2019-06-27T08:30:02.731Z,3.50
2019-06-27T08:32:31.426Z,2.80
2019-06-27T08:34:59.870Z,2.42
2019-06-27T08:37:28.325Z,2.30
2019-06-27T08:39:57.007Z,2.60
2019-06-27T08:42:25.470Z,2.85
2019-06-27T08:44:53.951Z,2.95
2019-06-27T08:47:22.470Z,3.40
2019-06-27T08:49:50.901Z,2.30
2019-06-27T08:52:19.609Z,3.27
2019-06-27T08:54:48.039Z,2.80
2019-06-27T08:57:16.483Z,3.02
2019-06-27T08:59:45.807Z,2.80
2019-06-27T09:02:14.419Z,2.98
2019-06-27T09:04:43.107Z,2.72
2019-06-27T09:07:11.555Z,3.10
2019-06-27T09:09:40.259Z,2.50
2019-06-27T09:12:08.714Z,2.75
2019-06-27T09:14:37.404Z,2.50
2019-06-27T09:17:05.846Z,2.30
2019-06-27T09:19:34.270Z,2.60
2019-06-27T09:22:02.722Z,2.30
2019-06-27T09:24:31.231Z,2.90
2019-06-27T09:26:59.685Z,2.67
2019-06-27T09:29:28.191Z,2.50
2019-06-27T09:31:56.628Z,2.00
2019-06-27T09:34:25.090Z,2.20
2019-06-27T09:36:53.613Z,2.45
2019-06-27T09:39:22.354Z,2.50
2019-06-27T09:41:50.793Z,2.70
2019-06-27T09:44:19.298Z,3.20
2019-06-27T09:46:47.744Z,2.30
2019-06-27T09:49:16.184Z,1.80
2019-06-27T09:51:44.628Z,2.60
2019-06-27T09:54:13.130Z,1.92
2019-06-27T09:56:41.571Z,2.40
2019-06-27T09:59:10.192Z,2.17
2019-06-27T10:01:38.879Z,1.90
2019-06-27T10:04:07.576Z,1.90
2019-06-27T10:06:36.200Z,2.40
2019-06-27T10:09:05.941Z,2.00
2019-06-27T10:11:34.354Z,2.00
2019-06-27T10:14:02.870Z,2.10
2019-06-27T10:16:31.328Z,2.00
2019-06-27T10:18:59.830Z,2.05
2019-06-27T10:21:28.268Z,2.33
2019-06-27T10:23:56.709Z,2.02
2019-06-27T10:26:25.173Z,1.82
2019-06-27T10:28:53.676Z,1.40
2019-06-27T10:31:22.109Z,1.50
2019-06-27T10:33:50.567Z,1.80
2019-06-27T10:36:18.998Z,1.60
2019-06-27T10:38:47.443Z,1.80
2019-06-27T10:41:15.874Z,1.77
2019-06-27T10:43:44.330Z,2.00
2019-06-27T10:46:13.013Z,1.40
2019-06-27T10:48:41.539Z,1.50
2019-06-27T10:51:10.231Z,1.60
2019-06-27T10:53:38.675Z,1.65
2019-06-27T10:56:07.165Z,1.57
2019-06-27T10:58:35.628Z,2.17
2019-06-27T11:01:04.391Z,2.17
2019-06-27T11:03:32.828Z,2.10
2019-06-27T11:06:01.312Z,2.10
2019-06-27T11:08:29.824Z,2.10
2019-06-27T11:10:58.303Z,2.10
2019-06-27T11:13:26.731Z,2.10
2019-06-27T11:15:55.191Z,2.12
2019-06-27T11:18:23.947Z,2.02
2019-06-27T11:20:52.697Z,2.05
2019-06-27T11:23:21.418Z,2.40
2019-06-27T11:25:49.942Z,2.60
2019-06-27T11:28:18.367Z,2.30
2019-06-27T11:30:47.080Z,2.30
2019-06-27T11:33:31.276Z,2.25
2019-06-27T11:35:45.945Z,2.35
2019-06-27T11:38:14.375Z,2.17
2019-06-27T11:40:42.817Z,2.12
2019-06-27T11:43:11.262Z,2.00
2019-06-27T11:45:40.061Z,2.15
2019-06-27T11:48:08.604Z,1.95
2019-06-27T11:50:37.108Z,1.75
2019-06-27T11:53:05.555Z,1.80
2019-06-27T11:55:34.075Z,2.10
2019-06-27T11:58:02.514Z,1.98
2019-06-27T12:00:31.015Z,2.00
2019-06-27T12:02:59.499Z,1.80
2019-06-27T12:05:27.935Z,2.22
2019-06-27T12:07:56.373Z,2.10
2019-06-27T12:10:24.826Z,2.00
2019-06-27T12:12:53.332Z,1.97
2019-06-27T12:15:21.788Z,2.10
2019-06-27T12:17:50.231Z,1.82
2019-06-27T12:20:18.710Z,1.87
2019-06-27T12:22:47.262Z,1.95
2019-06-27T12:25:15.931Z,1.77
2019-06-27T12:27:44.375Z,1.82
2019-06-27T12:30:13.059Z,1.80
2019-06-27T12:32:51.847Z,2.20
2019-06-27T12:35:11.791Z,1.60
2019-06-27T12:37:40.291Z,1.70
2019-06-27T12:40:09.201Z,1.90
2019-06-27T12:42:37.659Z,1.82
2019-06-27T12:45:07.892Z,2.10
2019-06-27T12:47:36.347Z,2.10
2019-06-27T12:50:07.525Z,2.30
2019-06-27T12:52:36.033Z,2.40
2019-06-27T12:55:04.707Z,1.72
2019-06-27T12:57:33.416Z,1.72
2019-06-27T13:00:01.875Z,1.90
2019-06-27T13:02:30.625Z,2.10
2019-06-27T13:04:59.062Z,1.70
2019-06-27T13:07:27.772Z,1.60
2019-06-27T13:09:56.218Z,1.80
2019-06-27T13:12:24.732Z,1.80
2019-06-27T13:14:53.427Z,1.70
2019-06-27T13:17:21.866Z,2.00
2019-06-27T13:19:51.842Z,2.10
2019-06-27T13:22:20.267Z,2.60
2019-06-27T13:24:48.971Z,2.50
2019-06-27T13:27:17.406Z,2.70
2019-06-27T13:29:45.847Z,2.90
2019-06-27T13:32:14.536Z,2.40
2019-06-27T13:34:42.989Z,2.40
2019-06-27T13:37:11.635Z,2.50
2019-06-27T13:39:40.384Z,2.27
2019-06-27T13:42:08.819Z,2.62
2019-06-27T13:44:37.263Z,2.60
2019-06-27T13:47:05.703Z,2.70
2019-06-27T13:49:34.225Z,2.50
2019-06-27T13:52:02.658Z,2.80
2019-06-27T13:54:31.183Z,2.85
2019-06-27T13:56:59.612Z,2.50
2019-06-27T13:59:28.056Z,2.62
2019-06-27T14:01:56.608Z,2.70
2019-06-27T14:04:25.201Z,2.40
2019-06-27T14:06:53.956Z,2.72
2019-06-27T14:09:23.872Z,2.90
2019-06-27T14:11:52.676Z,2.30
2019-06-27T14:14:21.170Z,2.40
2019-06-27T14:16:49.605Z,2.75
2019-06-27T14:19:18.397Z,2.40
2019-06-27T14:21:47.746Z,2.80
2019-06-27T14:24:17.614Z,2.60
2019-06-27T14:26:46.183Z,2.70
2019-06-27T14:29:14.618Z,3.00
2019-06-27T14:31:43.087Z,3.27
2019-06-27T14:34:11.588Z,2.80
2019-06-27T14:36:40.031Z,2.70
2019-06-27T14:39:08.476Z,2.95
2019-06-27T14:41:36.958Z,3.00
2019-06-27T14:44:05.445Z,3.20
2019-06-27T14:46:36.451Z,3.27
2019-06-27T14:49:04.139Z,3.17
2019-06-27T14:51:32.583Z,2.70
2019-06-27T14:54:01.027Z,2.77
2019-06-27T14:56:29.466Z,3.40
2019-06-27T14:58:57.899Z,4.03
2019-06-27T15:01:26.360Z,3.83
2019-06-27T15:03:54.874Z,3.40
2019-06-27T15:06:23.315Z,3.20
2019-06-27T15:08:52.027Z,3.17
2019-06-27T15:11:20.543Z,3.33
2019-06-27T15:13:48.982Z,3.02
2019-06-27T15:16:17.683Z,3.30
2019-06-27T15:18:46.388Z,3.20
2019-06-27T15:21:15.162Z,3.40
2019-06-27T15:23:43.856Z,3.40
2019-06-27T15:26:12.475Z,3.70
2019-06-27T15:28:40.904Z,3.50
2019-06-27T15:31:09.619Z,4.00
2019-06-27T15:33:38.055Z,3.50
2019-06-27T15:36:06.752Z,3.47
2019-06-27T15:38:35.451Z,3.92
2019-06-27T15:41:04.188Z,3.98
2019-06-27T15:43:32.639Z,4.00
2019-06-27T15:46:01.081Z,3.10
2019-06-27T15:48:29.792Z,3.60
2019-06-27T15:50:58.488Z,3.47
2019-06-27T15:53:26.940Z,3.65
2019-06-27T15:55:55.402Z,3.20
2019-06-27T15:58:23.973Z,4.03
2019-06-27T16:00:52.434Z,3.73
2019-06-27T16:03:20.949Z,4.28
2019-06-27T16:05:49.390Z,3.87
2019-06-27T16:08:17.831Z,3.90
2019-06-27T16:10:46.307Z,3.90
2019-06-27T16:13:14.758Z,3.93
2019-06-27T16:15:43.188Z,4.20
2019-06-27T16:18:11.940Z,3.77
2019-06-27T16:20:40.434Z,3.40
2019-06-27T16:23:08.884Z,3.80
2019-06-27T16:25:37.385Z,3.70
2019-06-27T16:28:05.840Z,3.67
2019-06-27T16:30:34.269Z,4.03
2019-06-27T16:33:02.720Z,3.60
2019-06-27T16:35:31.406Z,4.30
2019-06-27T16:37:59.851Z,3.60
2019-06-27T16:40:28.284Z,4.37
2019-06-27T16:42:56.727Z,4.30
2019-06-27T16:45:25.375Z,4.50
2019-06-27T16:47:54.085Z,3.70
2019-06-27T16:50:22.519Z,3.80
2019-06-27T16:52:50.969Z,3.40
2019-06-27T16:55:19.471Z,3.02
2019-06-27T16:57:48.108Z,2.90
2019-06-27T17:00:17.532Z,3.10
2019-06-27T17:02:45.956Z,3.80
2019-06-27T17:05:14.381Z,3.33
2019-06-27T17:07:42.836Z,3.45
2019-06-27T17:10:11.873Z,3.97
2019-06-27T17:12:40.303Z,4.03
2019-06-27T17:15:09.175Z,3.80
2019-06-27T17:17:37.680Z,3.60
2019-06-27T17:20:10.223Z,3.90
2019-06-27T17:22:38.652Z,4.03
2019-06-27T17:25:07.841Z,4.40
2019-06-27T17:27:36.296Z,3.90
2019-06-27T17:30:07.697Z,4.70
2019-06-27T17:32:36.189Z,4.30
2019-06-27T17:35:06.067Z,4.12
2019-06-27T17:37:34.557Z,4.15
2019-06-27T17:40:04.046Z,4.22
2019-06-27T17:42:32.472Z,4.30
2019-06-27T17:45:00.936Z,4.00
2019-06-27T17:47:29.436Z,4.60
2019-06-27T17:49:58.006Z,3.93
2019-06-27T17:52:26.501Z,4.15
2019-06-27T17:54:54.943Z,3.83
2019-06-27T17:57:23.377Z,4.42
2019-06-27T17:59:51.833Z,4.30
2019-06-27T18:02:20.265Z,4.07
2019-06-27T18:04:48.704Z,4.33
2019-06-27T18:07:17.138Z,4.50
2019-06-27T18:09:45.571Z,4.45
2019-06-27T18:12:14.013Z,4.12
2019-06-27T18:14:42.442Z,4.50
2019-06-27T18:17:10.914Z,4.30
2019-06-27T18:19:39.402Z,4.80
2019-06-27T18:22:07.848Z,4.40
2019-06-27T18:24:36.275Z,4.90
2019-06-27T18:27:04.713Z,4.30
2019-06-27T18:29:33.138Z,4.30
2019-06-27T18:32:01.630Z,4.70
2019-06-27T18:34:30.100Z,4.72
2019-06-27T18:36:58.553Z,4.17
2019-06-27T18:39:28.849Z,4.55
2019-06-27T18:41:57.323Z,4.70
2019-06-27T18:44:25.746Z,4.80
2019-06-27T18:46:54.203Z,4.90
2019-06-27T18:49:22.648Z,5.03
2019-06-27T18:51:51.093Z,4.90
2019-06-27T18:54:19.536Z,4.87
2019-06-27T18:56:48.146Z,5.23
2019-06-27T18:59:16.579Z,4.78
2019-06-27T19:01:45.284Z,5.47
2019-06-27T19:04:15.422Z,4.70
2019-06-27T19:06:43.868Z,5.70
2019-06-27T19:09:12.636Z,5.17
2019-06-27T19:11:41.083Z,5.08
2019-06-27T19:14:09.521Z,4.53
2019-06-27T19:16:38.026Z,5.30
2019-06-27T19:19:08.116Z,5.10
2019-06-27T19:21:41.107Z,4.50
2019-06-27T19:24:16.883Z,4.70
2019-06-27T19:26:46.706Z,5.00
2019-06-27T19:29:15.130Z,4.30
2019-06-27T19:31:43.563Z,4.30
2019-06-27T19:34:12.011Z,4.50
2019-06-27T19:36:40.444Z,4.03
2019-06-27T19:39:08.893Z,4.35
2019-06-27T19:41:37.328Z,4.50
2019-06-27T19:44:05.789Z,4.67
2019-06-27T19:46:34.280Z,4.50
2019-06-27T19:49:02.766Z,4.35
2019-06-27T19:51:31.198Z,5.00
2019-06-27T19:53:59.643Z,4.12
2019-06-27T19:56:28.070Z,5.10
2019-06-27T19:58:56.519Z,5.05
2019-06-27T20:01:24.950Z,4.90
2019-06-27T20:03:53.647Z,5.00
2019-06-27T20:06:22.079Z,5.40
2019-06-27T20:08:50.782Z,4.80
2019-06-27T20:11:19.470Z,5.00
2019-06-27T20:13:48.157Z,5.40
2019-06-27T20:16:16.843Z,4.80
2019-06-27T20:18:45.534Z,5.22
2019-06-27T20:21:13.963Z,4.97
2019-06-27T20:23:42.398Z,5.35
2019-06-27T20:26:11.083Z,5.15
2019-06-27T20:28:39.529Z,5.28
2019-06-27T20:31:08.206Z,5.60
2019-06-27T20:33:36.725Z,5.33
2019-06-27T20:36:05.302Z,5.30
2019-06-27T20:38:35.166Z,4.67
2019-06-27T20:41:03.909Z,5.00
2019-06-27T20:43:32.341Z,4.50
2019-06-27T20:46:00.785Z,4.60
2019-06-27T20:48:29.279Z,4.50
2019-06-27T20:50:57.715Z,4.33
2019-06-27T20:53:26.152Z,4.50
2019-06-27T20:55:54.595Z,4.50
2019-06-27T20:58:23.007Z,4.70
2019-06-27T21:00:51.788Z,4.33
2019-06-27T21:03:20.486Z,3.98
2019-06-27T21:05:49.174Z,4.60
2019-06-27T21:08:17.613Z,4.35
2019-06-27T21:10:46.054Z,4.12
2019-06-27T21:13:14.503Z,4.20
2019-06-27T21:15:43.001Z,4.83
2019-06-27T21:18:11.748Z,3.90
2019-06-27T21:20:40.198Z,4.10
2019-06-27T21:23:08.900Z,4.87
2019-06-27T21:25:37.590Z,4.93
2019-06-27T21:28:06.026Z,4.70
2019-06-27T21:30:34.457Z,4.78
2019-06-27T21:33:02.872Z,4.70
2019-06-27T21:35:31.557Z,4.87
2019-06-27T21:38:00.973Z,4.75
2019-06-27T21:40:29.657Z,4.80
2019-06-27T21:42:58.098Z,4.33
2019-06-27T21:45:26.788Z,4.10
2019-06-27T21:47:55.457Z,4.45
2019-06-27T21:50:23.893Z,3.85
2019-06-27T21:52:52.326Z,5.20
2019-06-27T21:55:20.831Z,4.67
2019-06-27T21:57:50.175Z,4.30
2019-06-27T22:00:19.046Z,4.50
2019-06-27T22:02:47.493Z,4.50
2019-06-27T22:05:16.140Z,4.85
2019-06-27T22:07:44.579Z,5.30
2019-06-27T22:10:13.298Z,6.00
2019-06-27T22:12:42.008Z,5.42
2019-06-27T22:15:10.643Z,5.60
2019-06-27T22:17:39.153Z,4.80
2019-06-27T22:20:15.219Z,5.28
2019-06-27T22:22:38.750Z,5.10
2019-06-27T22:25:07.659Z,5.50
2019-06-27T22:27:36.095Z,5.80
2019-06-27T22:30:06.560Z,5.40
2019-06-27T22:32:35.258Z,5.50
2019-06-27T22:35:04.657Z,5.83
2019-06-27T22:37:32.662Z,5.72
2019-06-27T22:40:19.014Z,5.70
2019-06-27T22:43:05.354Z,5.92
2019-06-27T22:45:51.701Z,6.37
2019-06-27T22:48:20.381Z,5.90
2019-06-27T22:50:51.082Z,5.95
2019-06-27T22:53:36.605Z,6.10
2019-06-27T22:56:05.220Z,5.67
2019-06-27T22:58:33.703Z,6.35
2019-06-27T23:01:02.467Z,5.87
2019-06-27T23:03:30.916Z,5.70
2019-06-27T23:05:59.359Z,5.37
2019-06-27T23:08:28.059Z,5.17
2019-06-27T23:10:56.498Z,5.20
2019-06-27T23:13:24.944Z,5.35
2019-06-27T23:15:53.386Z,5.15
2019-06-27T23:18:21.823Z,5.20
2019-06-27T23:20:50.251Z,5.08
2019-06-27T23:23:18.710Z,5.17
2019-06-27T23:25:47.147Z,5.30
2019-06-27T23:28:15.594Z,5.70
2019-06-27T23:30:44.019Z,4.40
2019-06-27T23:33:12.467Z,5.00
2019-06-27T23:35:40.978Z,4.33
2019-06-27T23:38:09.406Z,5.00
2019-06-27T23:40:37.854Z,5.22
2019-06-27T23:43:06.369Z,5.90
2019-06-27T23:45:34.807Z,5.80
2019-06-27T23:48:03.232Z,5.30
2019-06-27T23:50:31.758Z,6.00
2019-06-27T23:53:00.181Z,6.05
2019-06-27T23:55:28.626Z,6.10
2019-06-27T23:57:57.059Z,6.78
